Fri Langesund — ZDKQ8 — position and weather

sailwx.info

Track history (hours):
 
Tides and Currents Weather Stations Pressure Air Temp Water Temp Dewpoint Dewpoint Depression Visibility Wind Speed Wind Dir Waves Ship Positions

Fri Langesund

Last reported at 2014-Oct-24 06:05 UTC. Time now 2014-Oct-24 07:02 UTC.
Position N 51°22' E 004°17'.

Length 90 m; draft 5.9 m.

Type: Cargo ship. MMSI: 236111779.

Date/timePositionNaut miles runAvg speedWind from/ knotsBaromVisibWave heightAir tempDewpointWater temp
2014-Oct-24 06:05N 51°22' E 004°17'0 0.0
2014-Oct-24 02:32N 51°22' E 004°17'0 0.0
2014-Oct-24 00:26N 51°22' E 004°17'0 0.0
2014-Oct-23 20:32N 51°22' E 004°17'0 0.0
2014-Oct-23 17:23N 51°22' E 004°17'0 0.0
2014-Oct-23 07:23N 51°22' E 004°17'0 0.0
2014-Oct-23 06:08N 51°22' E 004°17'0 0.0
2014-Oct-23 04:29N 51°22' E 004°17'0 0.0
2014-Oct-23 03:32N 51°22' E 004°17'0 0.0
2014-Oct-23 02:08N 51°22' E 004°17'0 0.0
2014-Oct-23 00:17N 51°22' E 004°17'0 0.4
2014-Oct-22 23:34N 51°21' E 004°18'1 0.7
2014-Oct-22 22:34N 51°21' E 004°17'1 0.8
2014-Oct-22 21:33N 51°21' E 004°16'7 7.3
2014-Oct-22 20:34N 51°22' E 004°04'5 5.2
2014-Oct-22 19:33N 51°22' E 003°56'8 8.3
2014-Oct-22 18:33N 51°23' E 003°43'8 7.5
2014-Oct-22 17:33N 51°27' E 003°33'9 9.4
2014-Oct-22 16:33N 51°35' E 003°24'9 9.2
2014-Oct-22 15:34N 51°42' E 003°16'6 6.1
2014-Oct-22 14:33N 51°48' E 003°17'9 8.4
2014-Oct-22 13:31N 51°57' E 003°21'12 5.9
2014-Oct-22 11:33N 52°03' E 003°37'7 6.7
2014-Oct-22 10:34N 52°03' E 003°48'7 6.5
2014-Oct-22 09:34N 52°01' E 003°58'7 6.5
2014-Oct-22 08:33N 51°58' E 004°07'1110.6
2014-Oct-22 07:33N 51°54' E 004°23'3 3.3
2014-Oct-22 06:32N 51°54' E 004°28'0 0.0
2014-Oct-22 05:31N 51°54' E 004°28'1 1.5
2014-Oct-22 04:33N 51°54' E 004°26'1 0.8
2014-Oct-22 03:33N 51°55' E 004°25'0 0.0
2014-Oct-22 02:33N 51°55' E 004°25'0 0.0
2014-Oct-22 01:33N 51°55' E 004°25'0 0.0
2014-Oct-22 00:33N 51°55' E 004°25'0 0.0
2014-Oct-21 23:33N 51°55' E 004°25'0 0.0
2014-Oct-21 22:33N 51°55' E 004°25'0 0.0
2014-Oct-21 21:33N 51°55' E 004°25'0 0.0
2014-Oct-21 20:33N 51°55' E 004°25'0 0.0
2014-Oct-21 19:33N 51°55' E 004°25'0 0.0
2014-Oct-21 18:33N 51°55' E 004°25'0 0.0
2014-Oct-21 17:33N 51°55' E 004°25'0 0.0
2014-Oct-21 16:33N 51°55' E 004°25'0 0.0
2014-Oct-21 15:30N 51°55' E 004°25'0 0.0
2014-Oct-21 14:33N 51°55' E 004°25'0 0.0
2014-Oct-21 13:33N 51°55' E 004°25'0 0.0
2014-Oct-21 12:33N 51°55' E 004°25'0 0.0
2014-Oct-21 11:33N 51°55' E 004°25'0 0.0
2014-Oct-21 10:33N 51°55' E 004°25'0 0.0
2014-Oct-21 09:33N 51°55' E 004°25'0 0.0
2014-Oct-21 08:33N 51°55' E 004°25'0 0.0
2014-Oct-21 07:33N 51°55' E 004°25'163162.8
2014-Oct-21 06:33N 51°55' E 000°01'163162.9
2014-Oct-21 05:33N 51°55' E 004°25'0 0.0
2014-Oct-21 04:33N 51°55' E 004°25'0 0.0
2014-Oct-21 03:33N 51°55' E 004°25'0 0.0
2014-Oct-21 02:33N 51°55' E 004°25'0 0.0
2014-Oct-21 01:33N 51°55' E 004°25'0 0.0
2014-Oct-21 00:33N 51°55' E 004°25'0 0.0
2014-Oct-20 23:33N 51°55' E 004°25'0 0.1
2014-Oct-20 22:34N 51°54' E 004°25'6 5.9
2014-Oct-20 21:34N 51°55' E 004°15'8 8.5
2014-Oct-20 20:34N 51°59' E 004°04'9 9.1
2014-Oct-20 19:33N 51°59' E 003°49'9 8.5
2014-Oct-20 18:33N 51°57' E 003°36'50 9.9
2014-Oct-20 13:33N 51°35' E 002°23'1211.6
2014-Oct-20 12:34N 51°26' E 002°12'1211.8
2014-Oct-20 11:33N 51°15' E 002°04'1212.2
2014-Oct-20 10:33N 51°07' E 001°49'1212.5
2014-Oct-20 09:34N 50°58' E 001°36'1311.9
2014-Oct-20 08:28N 50°48' E 001°24'284 6.1
2014-Oct-18 10:11N 52°14' W 005°51'5 8.4
2014-Oct-18 09:33N 52°20' W 005°50'114 6.7
2014-Oct-17 16:26N 54°13' W 005°21'8 9.2
2014-Oct-17 15:33N 54°21' W 005°19'9 9.5
2014-Oct-17 14:34N 54°30' W 005°22'1010.1
2014-Oct-17 13:33N 54°40' W 005°28'9 9.0
2014-Oct-17 12:33N 54°42' W 005°43'9 8.3
2014-Oct-17 11:31N 54°37' W 005°55'0 0.0
2014-Oct-16 06:13N 54°37' W 005°55'0 0.0
2014-Oct-16 01:04N 54°37' W 005°55'0 0.0
2014-Oct-15 23:28N 54°37' W 005°55'1 0.1
2014-Oct-15 17:28N 54°37' W 005°54'0 0.2
2014-Oct-15 16:17N 54°37' W 005°54'0 0.0
2014-Oct-15 15:23N 54°37' W 005°54'0 0.0
2014-Oct-15 14:29N 54°37' W 005°54'0 0.0
2014-Oct-15 13:23N 54°37' W 005°54'0 0.0
2014-Oct-15 10:17N 54°37' W 005°54'0 0.0
2014-Oct-15 04:23N 54°37' W 005°54'0 0.0
2014-Oct-15 03:29N 54°37' W 005°54'0 0.0
2014-Oct-15 02:29N 54°37' W 005°54'0 0.0
2014-Oct-15 01:29N 54°37' W 005°54'0 0.0
2014-Oct-14 18:17N 54°37' W 005°54'0 0.0
2014-Oct-14 17:17N 54°37' W 005°54'0 0.0
2014-Oct-14 16:23N 54°37' W 005°54'0 0.0
2014-Oct-14 15:26N 54°37' W 005°54'0 0.0
2014-Oct-14 13:23N 54°37' W 005°54'0 0.0
2014-Oct-14 07:14N 54°37' W 005°54'0 0.0
2014-Oct-14 06:14N 54°37' W 005°54'  
Track history (hours):
 
Tides and Currents Weather Stations Pressure Air Temp Water Temp Dewpoint Dewpoint Depression Visibility Wind Speed Wind Dir Waves Ship Positions

Fri Langesund

Last reported at 2014-Oct-24 06:05 UTC. Time now 2014-Oct-24 07:02 UTC.
Position N 51°22' E 004°17'.

Length 90 m; draft 5.9 m.

Type: Cargo ship. MMSI: 236111779.

Date/timePositionNaut miles runAvg speedWind from/ knotsBaromVisibWave heightAir tempDewpointWater temp
2014-Oct-24 06:05N 51°22' E 004°17'0 0.0
2014-Oct-24 02:32N 51°22' E 004°17'0 0.0
2014-Oct-24 00:26N 51°22' E 004°17'0 0.0
2014-Oct-23 20:32N 51°22' E 004°17'0 0.0
2014-Oct-23 17:23N 51°22' E 004°17'0 0.0
2014-Oct-23 07:23N 51°22' E 004°17'0 0.0
2014-Oct-23 06:08N 51°22' E 004°17'0 0.0
2014-Oct-23 04:29N 51°22' E 004°17'0 0.0
2014-Oct-23 03:32N 51°22' E 004°17'0 0.0
2014-Oct-23 02:08N 51°22' E 004°17'0 0.0
2014-Oct-23 00:17N 51°22' E 004°17'0 0.4
2014-Oct-22 23:34N 51°21' E 004°18'1 0.7
2014-Oct-22 22:34N 51°21' E 004°17'1 0.8
2014-Oct-22 21:33N 51°21' E 004°16'7 7.3
2014-Oct-22 20:34N 51°22' E 004°04'5 5.2
2014-Oct-22 19:33N 51°22' E 003°56'8 8.3
2014-Oct-22 18:33N 51°23' E 003°43'8 7.5
2014-Oct-22 17:33N 51°27' E 003°33'9 9.4
2014-Oct-22 16:33N 51°35' E 003°24'9 9.2
2014-Oct-22 15:34N 51°42' E 003°16'6 6.1
2014-Oct-22 14:33N 51°48' E 003°17'9 8.4
2014-Oct-22 13:31N 51°57' E 003°21'12 5.9
2014-Oct-22 11:33N 52°03' E 003°37'7 6.7
2014-Oct-22 10:34N 52°03' E 003°48'7 6.5
2014-Oct-22 09:34N 52°01' E 003°58'7 6.5
2014-Oct-22 08:33N 51°58' E 004°07'1110.6
2014-Oct-22 07:33N 51°54' E 004°23'3 3.3
2014-Oct-22 06:32N 51°54' E 004°28'0 0.0
2014-Oct-22 05:31N 51°54' E 004°28'1 1.5
2014-Oct-22 04:33N 51°54' E 004°26'1 0.8
2014-Oct-22 03:33N 51°55' E 004°25'0 0.0
2014-Oct-22 02:33N 51°55' E 004°25'0 0.0
2014-Oct-22 01:33N 51°55' E 004°25'0 0.0
2014-Oct-22 00:33N 51°55' E 004°25'0 0.0
2014-Oct-21 23:33N 51°55' E 004°25'0 0.0
2014-Oct-21 22:33N 51°55' E 004°25'0 0.0
2014-Oct-21 21:33N 51°55' E 004°25'0 0.0
2014-Oct-21 20:33N 51°55' E 004°25'0 0.0
2014-Oct-21 19:33N 51°55' E 004°25'0 0.0
2014-Oct-21 18:33N 51°55' E 004°25'0 0.0
2014-Oct-21 17:33N 51°55' E 004°25'0 0.0
2014-Oct-21 16:33N 51°55' E 004°25'0 0.0
2014-Oct-21 15:30N 51°55' E 004°25'0 0.0
2014-Oct-21 14:33N 51°55' E 004°25'0 0.0
2014-Oct-21 13:33N 51°55' E 004°25'0 0.0
2014-Oct-21 12:33N 51°55' E 004°25'0 0.0
2014-Oct-21 11:33N 51°55' E 004°25'0 0.0
2014-Oct-21 10:33N 51°55' E 004°25'0 0.0
2014-Oct-21 09:33N 51°55' E 004°25'0 0.0
2014-Oct-21 08:33N 51°55' E 004°25'0 0.0
2014-Oct-21 07:33N 51°55' E 004°25'163162.8
2014-Oct-21 06:33N 51°55' E 000°01'163162.9
2014-Oct-21 05:33N 51°55' E 004°25'0 0.0
2014-Oct-21 04:33N 51°55' E 004°25'0 0.0
2014-Oct-21 03:33N 51°55' E 004°25'0 0.0
2014-Oct-21 02:33N 51°55' E 004°25'0 0.0
2014-Oct-21 01:33N 51°55' E 004°25'0 0.0
2014-Oct-21 00:33N 51°55' E 004°25'0 0.0
2014-Oct-20 23:33N 51°55' E 004°25'0 0.1
2014-Oct-20 22:34N 51°54' E 004°25'6 5.9
2014-Oct-20 21:34N 51°55' E 004°15'8 8.5
2014-Oct-20 20:34N 51°59' E 004°04'9 9.1
2014-Oct-20 19:33N 51°59' E 003°49'9 8.5
2014-Oct-20 18:33N 51°57' E 003°36'50 9.9
2014-Oct-20 13:33N 51°35' E 002°23'1211.6
2014-Oct-20 12:34N 51°26' E 002°12'1211.8
2014-Oct-20 11:33N 51°15' E 002°04'1212.2
2014-Oct-20 10:33N 51°07' E 001°49'1212.5
2014-Oct-20 09:34N 50°58' E 001°36'1311.9
2014-Oct-20 08:28N 50°48' E 001°24'284 6.1
2014-Oct-18 10:11N 52°14' W 005°51'5 8.4
2014-Oct-18 09:33N 52°20' W 005°50'114 6.7
2014-Oct-17 16:26N 54°13' W 005°21'8 9.2
2014-Oct-17 15:33N 54°21' W 005°19'9 9.5
2014-Oct-17 14:34N 54°30' W 005°22'1010.1
2014-Oct-17 13:33N 54°40' W 005°28'9 9.0
2014-Oct-17 12:33N 54°42' W 005°43'9 8.3
2014-Oct-17 11:31N 54°37' W 005°55'0 0.0
2014-Oct-16 06:13N 54°37' W 005°55'0 0.0
2014-Oct-16 01:04N 54°37' W 005°55'0 0.0
2014-Oct-15 23:28N 54°37' W 005°55'1 0.1
2014-Oct-15 17:28N 54°37' W 005°54'0 0.2
2014-Oct-15 16:17N 54°37' W 005°54'0 0.0
2014-Oct-15 15:23N 54°37' W 005°54'0 0.0
2014-Oct-15 14:29N 54°37' W 005°54'0 0.0
2014-Oct-15 13:23N 54°37' W 005°54'0 0.0
2014-Oct-15 10:17N 54°37' W 005°54'0 0.0
2014-Oct-15 04:23N 54°37' W 005°54'0 0.0
2014-Oct-15 03:29N 54°37' W 005°54'0 0.0
2014-Oct-15 02:29N 54°37' W 005°54'0 0.0
2014-Oct-15 01:29N 54°37' W 005°54'0 0.0
2014-Oct-14 18:17N 54°37' W 005°54'0 0.0
2014-Oct-14 17:17N 54°37' W 005°54'0 0.0
2014-Oct-14 16:23N 54°37' W 005°54'0 0.0
2014-Oct-14 15:26N 54°37' W 005°54'0 0.0
2014-Oct-14 13:23N 54°37' W 005°54'0 0.0
2014-Oct-14 07:14N 54°37' W 005°54'0 0.0
2014-Oct-14 06:14N 54°37' W 005°54'  

Dump ship's entire track history